sensor_id;sensor_type;location;lat;lon;timestamp;P1;durP1;ratioP1;P2;durP2;ratioP2
13311;SDS011;34033;48.672;9.376;2023-03-23T00:01:46;4.07;;;2.10;;
13311;SDS011;34033;48.672;9.376;2023-03-23T00:04:14;3.43;;;2.53;;
13311;SDS011;34033;48.672;9.376;2023-03-23T00:06:40;3.47;;;2.50;;
13311;SDS011;34033;48.672;9.376;2023-03-23T00:09:05;2.50;;;2.30;;
13311;SDS011;34033;48.672;9.376;2023-03-23T00:11:31;2.97;;;2.43;;
13311;SDS011;34033;48.672;9.376;2023-03-23T00:13:58;2.70;;;2.10;;
13311;SDS011;34033;48.672;9.376;2023-03-23T00:16:26;2.27;;;1.80;;
13311;SDS011;34033;48.672;9.376;2023-03-23T00:18:55;2.67;;;2.40;;
13311;SDS011;34033;48.672;9.376;2023-03-23T00:21:23;3.43;;;2.13;;
13311;SDS011;34033;48.672;9.376;2023-03-23T00:24:19;2.77;;;2.00;;
13311;SDS011;34033;48.672;9.376;2023-03-23T00:26:45;2.20;;;2.00;;
13311;SDS011;34033;48.672;9.376;2023-03-23T00:29:12;7.57;;;2.43;;
13311;SDS011;34033;48.672;9.376;2023-03-23T00:31:41;2.40;;;2.20;;
13311;SDS011;34033;48.672;9.376;2023-03-23T00:34:11;3.13;;;2.20;;
13311;SDS011;34033;48.672;9.376;2023-03-23T00:36:37;2.43;;;2.00;;
13311;SDS011;34033;48.672;9.376;2023-03-23T00:39:07;3.00;;;2.00;;
13311;SDS011;34033;48.672;9.376;2023-03-23T00:41:33;5.20;;;2.00;;
13311;SDS011;34033;48.672;9.376;2023-03-23T00:44:01;2.30;;;2.10;;
13311;SDS011;34033;48.672;9.376;2023-03-23T00:46:28;2.40;;;2.00;;
13311;SDS011;34033;48.672;9.376;2023-03-23T00:48:54;2.53;;;2.23;;
13311;SDS011;34033;48.672;9.376;2023-03-23T00:51:21;2.33;;;2.13;;
13311;SDS011;34033;48.672;9.376;2023-03-23T00:53:47;2.40;;;2.17;;
13311;SDS011;34033;48.672;9.376;2023-03-23T00:56:13;2.93;;;2.30;;
13311;SDS011;34033;48.672;9.376;2023-03-23T00:58:38;2.47;;;2.20;;
13311;SDS011;34033;48.672;9.376;2023-03-23T01:01:04;2.67;;;2.43;;
13311;SDS011;34033;48.672;9.376;2023-03-23T01:03:30;2.30;;;2.10;;
13311;SDS011;34033;48.672;9.376;2023-03-23T01:05:56;3.60;;;2.20;;
13311;SDS011;34033;48.672;9.376;2023-03-23T01:08:21;4.23;;;2.30;;
13311;SDS011;34033;48.672;9.376;2023-03-23T01:10:47;3.50;;;2.40;;
13311;SDS011;34033;48.672;9.376;2023-03-23T01:13:13;2.40;;;2.10;;
13311;SDS011;34033;48.672;9.376;2023-03-23T01:15:39;2.47;;;2.20;;
13311;SDS011;34033;48.672;9.376;2023-03-23T01:18:05;1.90;;;1.80;;
13311;SDS011;34033;48.672;9.376;2023-03-23T01:20:31;2.23;;;2.00;;
13311;SDS011;34033;48.672;9.376;2023-03-23T01:22:57;2.73;;;2.10;;
13311;SDS011;34033;48.672;9.376;2023-03-23T01:25:26;2.20;;;2.00;;
13311;SDS011;34033;48.672;9.376;2023-03-23T01:27:53;2.27;;;2.07;;
13311;SDS011;34033;48.672;9.376;2023-03-23T01:30:18;2.93;;;1.90;;
13311;SDS011;34033;48.672;9.376;2023-03-23T01:32:44;2.63;;;2.40;;
13311;SDS011;34033;48.672;9.376;2023-03-23T01:35:11;2.63;;;2.27;;
13311;SDS011;34033;48.672;9.376;2023-03-23T01:37:37;4.17;;;2.33;;
13311;SDS011;34033;48.672;9.376;2023-03-23T01:40:02;6.23;;;2.30;;
13311;SDS011;34033;48.672;9.376;2023-03-23T01:42:31;2.97;;;2.43;;
13311;SDS011;34033;48.672;9.376;2023-03-23T01:50:43;2.90;;;2.20;;
13311;SDS011;34033;48.672;9.376;2023-03-23T01:53:14;3.20;;;2.20;;
13311;SDS011;34033;48.672;9.376;2023-03-23T01:55:41;3.70;;;2.53;;
13311;SDS011;34033;48.672;9.376;2023-03-23T01:58:09;2.50;;;2.30;;
13311;SDS011;34033;48.672;9.376;2023-03-23T02:00:36;2.20;;;2.00;;
13311;SDS011;34033;48.672;9.376;2023-03-23T02:03:05;2.40;;;2.20;;
13311;SDS011;34033;48.672;9.376;2023-03-23T02:05:34;6.67;;;2.87;;
13311;SDS011;34033;48.672;9.376;2023-03-23T02:08:03;3.23;;;2.27;;
13311;SDS011;34033;48.672;9.376;2023-03-23T02:10:32;6.17;;;2.60;;
13311;SDS011;34033;48.672;9.376;2023-03-23T02:13:05;2.90;;;2.43;;
13311;SDS011;34033;48.672;9.376;2023-03-23T02:27:28;3.03;;;2.30;;
13311;SDS011;34033;48.672;9.376;2023-03-23T02:30:09;2.63;;;2.30;;
13311;SDS011;34033;48.672;9.376;2023-03-23T02:35:39;2.40;;;2.20;;
13311;SDS011;34033;48.672;9.376;2023-03-23T02:38:11;4.13;;;2.40;;
13311;SDS011;34033;48.672;9.376;2023-03-23T02:40:39;5.47;;;2.50;;
13311;SDS011;34033;48.672;9.376;2023-03-23T02:43:09;4.57;;;2.30;;
13311;SDS011;34033;48.672;9.376;2023-03-23T02:45:38;2.77;;;2.23;;
13311;SDS011;34033;48.672;9.376;2023-03-23T02:48:06;2.33;;;2.13;;
13311;SDS011;34033;48.672;9.376;2023-03-23T02:50:33;2.17;;;1.97;;
13311;SDS011;34033;48.672;9.376;2023-03-23T02:53:01;2.83;;;2.20;;
13311;SDS011;34033;48.672;9.376;2023-03-23T02:55:31;3.30;;;2.70;;
13311;SDS011;34033;48.672;9.376;2023-03-23T02:57:57;4.10;;;1.90;;
13311;SDS011;34033;48.672;9.376;2023-03-23T03:00:24;2.27;;;2.07;;
13311;SDS011;34033;48.672;9.376;2023-03-23T03:02:50;3.40;;;2.27;;
13311;SDS011;34033;48.672;9.376;2023-03-23T03:10:58;1.83;;;1.73;;
13311;SDS011;34033;48.672;9.376;2023-03-23T03:19:04;1.90;;;1.80;;
13311;SDS011;34033;48.672;9.376;2023-03-23T03:21:37;3.27;;;1.60;;
13311;SDS011;34033;48.672;9.376;2023-03-23T03:24:07;2.17;;;1.97;;
13311;SDS011;34033;48.672;9.376;2023-03-23T03:26:36;3.10;;;2.07;;
13311;SDS011;34033;48.672;9.376;2023-03-23T03:29:04;1.90;;;1.80;;
13311;SDS011;34033;48.672;9.376;2023-03-23T03:31:32;2.87;;;2.03;;
13311;SDS011;34033;48.672;9.376;2023-03-23T03:34:00;4.10;;;2.50;;
13311;SDS011;34033;48.672;9.376;2023-03-23T03:36:30;2.03;;;1.93;;
13311;SDS011;34033;48.672;9.376;2023-03-23T03:39:06;2.63;;;2.30;;
13311;SDS011;34033;48.672;9.376;2023-03-23T03:41:34;1.90;;;1.80;;
13311;SDS011;34033;48.672;9.376;2023-03-23T03:44:01;2.30;;;2.10;;
13311;SDS011;34033;48.672;9.376;2023-03-23T03:46:27;2.50;;;2.00;;
13311;SDS011;34033;48.672;9.376;2023-03-23T03:48:55;1.70;;;1.60;;
13311;SDS011;34033;48.672;9.376;2023-03-23T03:51:21;2.73;;;2.30;;
13311;SDS011;34033;48.672;9.376;2023-03-23T03:53:47;4.20;;;3.07;;
13311;SDS011;34033;48.672;9.376;2023-03-23T03:56:12;3.10;;;2.40;;
13311;SDS011;34033;48.672;9.376;2023-03-23T03:58:38;2.63;;;2.43;;
13311;SDS011;34033;48.672;9.376;2023-03-23T04:01:04;2.27;;;2.07;;
13311;SDS011;34033;48.672;9.376;2023-03-23T04:03:29;4.17;;;2.83;;
13311;SDS011;34033;48.672;9.376;2023-03-23T04:05:55;4.00;;;2.20;;
13311;SDS011;34033;48.672;9.376;2023-03-23T04:08:23;2.87;;;2.47;;
13311;SDS011;34033;48.672;9.376;2023-03-23T04:10:49;2.47;;;2.20;;
13311;SDS011;34033;48.672;9.376;2023-03-23T04:13:15;2.60;;;2.40;;
13311;SDS011;34033;48.672;9.376;2023-03-23T04:15:41;2.97;;;2.20;;
13311;SDS011;34033;48.672;9.376;2023-03-23T04:18:06;4.93;;;2.40;;
13311;SDS011;34033;48.672;9.376;2023-03-23T04:20:31;4.13;;;2.30;;
13311;SDS011;34033;48.672;9.376;2023-03-23T04:22:59;2.43;;;2.17;;
13311;SDS011;34033;48.672;9.376;2023-03-23T04:25:25;3.33;;;2.47;;
13311;SDS011;34033;48.672;9.376;2023-03-23T04:27:52;2.70;;;2.50;;
13311;SDS011;34033;48.672;9.376;2023-03-23T04:30:21;2.97;;;2.43;;
13311;SDS011;34033;48.672;9.376;2023-03-23T04:32:50;6.63;;;2.00;;
13311;SDS011;34033;48.672;9.376;2023-03-23T04:35:17;3.40;;;2.53;;
13311;SDS011;34033;48.672;9.376;2023-03-23T04:37:44;2.33;;;2.10;;
13311;SDS011;34033;48.672;9.376;2023-03-23T04:40:10;2.50;;;2.20;;
13311;SDS011;34033;48.672;9.376;2023-03-23T04:42:39;4.57;;;2.27;;
13311;SDS011;34033;48.672;9.376;2023-03-23T04:45:12;6.73;;;2.70;;
13311;SDS011;34033;48.672;9.376;2023-03-23T04:47:39;2.70;;;2.50;;
13311;SDS011;34033;48.672;9.376;2023-03-23T04:50:07;5.00;;;2.50;;
13311;SDS011;34033;48.672;9.376;2023-03-23T04:52:37;2.10;;;2.00;;
13311;SDS011;34033;48.672;9.376;2023-03-23T04:55:06;5.60;;;2.40;;
13311;SDS011;34033;48.672;9.376;2023-03-23T04:57:33;20.57;;;4.77;;
13311;SDS011;34033;48.672;9.376;2023-03-23T05:00:00;21.07;;;6.10;;
13311;SDS011;34033;48.672;9.376;2023-03-23T05:02:33;17.30;;;4.50;;
13311;SDS011;34033;48.672;9.376;2023-03-23T05:05:02;6.60;;;3.50;;
13311;SDS011;34033;48.672;9.376;2023-03-23T05:07:27;4.00;;;2.27;;
13311;SDS011;34033;48.672;9.376;2023-03-23T05:09:53;5.57;;;2.33;;
13311;SDS011;34033;48.672;9.376;2023-03-23T05:12:18;2.80;;;2.50;;
13311;SDS011;34033;48.672;9.376;2023-03-23T05:14:43;2.67;;;2.47;;
13311;SDS011;34033;48.672;9.376;2023-03-23T05:17:09;2.50;;;2.30;;
13311;SDS011;34033;48.672;9.376;2023-03-23T05:19:34;3.47;;;2.30;;
13311;SDS011;34033;48.672;9.376;2023-03-23T05:22:01;7.57;;;2.73;;
13311;SDS011;34033;48.672;9.376;2023-03-23T05:24:28;8.07;;;2.60;;
13311;SDS011;34033;48.672;9.376;2023-03-23T05:26:56;2.80;;;2.47;;
13311;SDS011;34033;48.672;9.376;2023-03-23T05:29:22;3.57;;;2.67;;
13311;SDS011;34033;48.672;9.376;2023-03-23T05:31:49;3.67;;;2.80;;
13311;SDS011;34033;48.672;9.376;2023-03-23T05:34:14;5.07;;;2.90;;
13311;SDS011;34033;48.672;9.376;2023-03-23T05:36:40;7.13;;;3.27;;
13311;SDS011;34033;48.672;9.376;2023-03-23T05:39:08;4.67;;;3.20;;
13311;SDS011;34033;48.672;9.376;2023-03-23T05:41:35;6.30;;;3.07;;
13311;SDS011;34033;48.672;9.376;2023-03-23T05:44:00;2.40;;;2.20;;
13311;SDS011;34033;48.672;9.376;2023-03-23T05:46:26;4.40;;;2.70;;
13311;SDS011;34033;48.672;9.376;2023-03-23T05:48:52;5.30;;;2.70;;
13311;SDS011;34033;48.672;9.376;2023-03-23T05:51:18;6.20;;;2.60;;
13311;SDS011;34033;48.672;9.376;2023-03-23T05:53:45;4.57;;;2.73;;
13311;SDS011;34033;48.672;9.376;2023-03-23T05:56:10;3.33;;;2.80;;
13311;SDS011;34033;48.672;9.376;2023-03-23T05:58:36;5.37;;;2.77;;
13311;SDS011;34033;48.672;9.376;2023-03-23T06:01:05;5.53;;;3.27;;
13311;SDS011;34033;48.672;9.376;2023-03-23T06:03:31;3.80;;;2.97;;
13311;SDS011;34033;48.672;9.376;2023-03-23T06:05:56;5.23;;;3.27;;
13311;SDS011;34033;48.672;9.376;2023-03-23T06:08:22;5.60;;;3.73;;
13311;SDS011;34033;48.672;9.376;2023-03-23T06:10:48;5.80;;;2.77;;
13311;SDS011;34033;48.672;9.376;2023-03-23T06:13:14;7.93;;;3.40;;
13311;SDS011;34033;48.672;9.376;2023-03-23T06:15:39;3.43;;;2.90;;
13311;SDS011;34033;48.672;9.376;2023-03-23T06:18:05;4.50;;;3.20;;
13311;SDS011;34033;48.672;9.376;2023-03-23T06:20:31;3.50;;;2.57;;
13311;SDS011;34033;48.672;9.376;2023-03-23T06:22:57;5.53;;;2.67;;
13311;SDS011;34033;48.672;9.376;2023-03-23T06:25:22;3.70;;;2.87;;
13311;SDS011;34033;48.672;9.376;2023-03-23T06:27:48;5.47;;;2.90;;
13311;SDS011;34033;48.672;9.376;2023-03-23T06:30:14;5.17;;;3.03;;
13311;SDS011;34033;48.672;9.376;2023-03-23T06:32:40;4.87;;;2.63;;
13311;SDS011;34033;48.672;9.376;2023-03-23T06:35:07;6.30;;;2.40;;
13311;SDS011;34033;48.672;9.376;2023-03-23T06:37:34;3.27;;;2.57;;
13311;SDS011;34033;48.672;9.376;2023-03-23T06:40:01;6.17;;;3.07;;
13311;SDS011;34033;48.672;9.376;2023-03-23T06:42:29;3.73;;;2.87;;
13311;SDS011;34033;48.672;9.376;2023-03-23T06:44:54;7.53;;;3.10;;
13311;SDS011;34033;48.672;9.376;2023-03-23T06:47:22;4.77;;;3.07;;
13311;SDS011;34033;48.672;9.376;2023-03-23T06:49:48;5.63;;;3.07;;
13311;SDS011;34033;48.672;9.376;2023-03-23T06:52:13;3.60;;;2.57;;
13311;SDS011;34033;48.672;9.376;2023-03-23T06:54:39;5.17;;;3.17;;
13311;SDS011;34033;48.672;9.376;2023-03-23T06:57:05;3.77;;;3.03;;
13311;SDS011;34033;48.672;9.376;2023-03-23T06:59:30;5.27;;;2.90;;
13311;SDS011;34033;48.672;9.376;2023-03-23T07:01:56;6.03;;;3.00;;
13311;SDS011;34033;48.672;9.376;2023-03-23T07:04:21;3.17;;;2.87;;
13311;SDS011;34033;48.672;9.376;2023-03-23T07:06:48;6.07;;;2.93;;
13311;SDS011;34033;48.672;9.376;2023-03-23T07:09:14;7.37;;;3.70;;
13311;SDS011;34033;48.672;9.376;2023-03-23T07:11:40;6.20;;;3.40;;
13311;SDS011;34033;48.672;9.376;2023-03-23T07:14:06;7.97;;;3.13;;
13311;SDS011;34033;48.672;9.376;2023-03-23T07:16:31;4.10;;;2.83;;
13311;SDS011;34033;48.672;9.376;2023-03-23T07:18:57;6.63;;;3.43;;
13311;SDS011;34033;48.672;9.376;2023-03-23T07:21:23;6.27;;;3.40;;
13311;SDS011;34033;48.672;9.376;2023-03-23T07:23:48;9.20;;;3.27;;
13311;SDS011;34033;48.672;9.376;2023-03-23T07:26:14;6.87;;;3.90;;
13311;SDS011;34033;48.672;9.376;2023-03-23T07:28:39;5.93;;;3.77;;
13311;SDS011;34033;48.672;9.376;2023-03-23T07:31:05;3.37;;;2.80;;
13311;SDS011;34033;48.672;9.376;2023-03-23T07:33:33;5.53;;;3.43;;
13311;SDS011;34033;48.672;9.376;2023-03-23T07:35:59;7.50;;;3.50;;
13311;SDS011;34033;48.672;9.376;2023-03-23T07:38:26;3.93;;;2.80;;
13311;SDS011;34033;48.672;9.376;2023-03-23T07:40:52;7.87;;;3.30;;
13311;SDS011;34033;48.672;9.376;2023-03-23T07:43:18;5.67;;;2.77;;
13311;SDS011;34033;48.672;9.376;2023-03-23T07:45:44;6.60;;;3.33;;
13311;SDS011;34033;48.672;9.376;2023-03-23T07:48:09;5.23;;;2.60;;
13311;SDS011;34033;48.672;9.376;2023-03-23T07:50:35;7.27;;;2.70;;
13311;SDS011;34033;48.672;9.376;2023-03-23T07:53:02;3.53;;;2.70;;
13311;SDS011;34033;48.672;9.376;2023-03-23T07:55:27;7.03;;;3.13;;
13311;SDS011;34033;48.672;9.376;2023-03-23T07:57:53;7.23;;;3.17;;
13311;SDS011;34033;48.672;9.376;2023-03-23T08:00:20;6.67;;;3.27;;
13311;SDS011;34033;48.672;9.376;2023-03-23T08:02:49;5.87;;;2.97;;
13311;SDS011;34033;48.672;9.376;2023-03-23T08:05:16;4.63;;;3.00;;
13311;SDS011;34033;48.672;9.376;2023-03-23T08:07:42;4.53;;;3.20;;
13311;SDS011;34033;48.672;9.376;2023-03-23T08:10:10;4.17;;;2.63;;
13311;SDS011;34033;48.672;9.376;2023-03-23T08:12:40;4.27;;;3.40;;
13311;SDS011;34033;48.672;9.376;2023-03-23T08:15:07;6.27;;;3.67;;
13311;SDS011;34033;48.672;9.376;2023-03-23T08:17:34;6.77;;;3.53;;
13311;SDS011;34033;48.672;9.376;2023-03-23T08:20:01;4.60;;;3.53;;
13311;SDS011;34033;48.672;9.376;2023-03-23T08:22:34;4.93;;;3.37;;
13311;SDS011;34033;48.672;9.376;2023-03-23T08:25:01;3.30;;;2.97;;
13311;SDS011;34033;48.672;9.376;2023-03-23T08:27:28;6.93;;;3.20;;
13311;SDS011;34033;48.672;9.376;2023-03-23T08:29:54;3.90;;;2.80;;
13311;SDS011;34033;48.672;9.376;2023-03-23T08:32:19;6.90;;;2.57;;
13311;SDS011;34033;48.672;9.376;2023-03-23T08:34:44;2.77;;;2.33;;
13311;SDS011;34033;48.672;9.376;2023-03-23T08:37:10;2.60;;;2.27;;
13311;SDS011;34033;48.672;9.376;2023-03-23T08:39:36;5.70;;;2.20;;
13311;SDS011;34033;48.672;9.376;2023-03-23T08:42:02;2.33;;;1.40;;
13311;SDS011;34033;48.672;9.376;2023-03-23T08:44:28;2.60;;;1.80;;
13311;SDS011;34033;48.672;9.376;2023-03-23T08:46:54;1.33;;;1.30;;
13311;SDS011;34033;48.672;9.376;2023-03-23T08:49:22;1.67;;;1.30;;
13311;SDS011;34033;48.672;9.376;2023-03-23T08:51:48;0.97;;;0.97;;
13311;SDS011;34033;48.672;9.376;2023-03-23T08:54:14;1.40;;;1.30;;
13311;SDS011;34033;48.672;9.376;2023-03-23T08:56:39;1.27;;;1.10;;
13311;SDS011;34033;48.672;9.376;2023-03-23T08:59:04;0.93;;;0.93;;
13311;SDS011;34033;48.672;9.376;2023-03-23T09:01:30;1.50;;;1.40;;
13311;SDS011;34033;48.672;9.376;2023-03-23T09:03:55;1.23;;;1.07;;
13311;SDS011;34033;48.672;9.376;2023-03-23T09:06:20;1.60;;;1.10;;
13311;SDS011;34033;48.672;9.376;2023-03-23T09:08:46;1.10;;;1.00;;
13311;SDS011;34033;48.672;9.376;2023-03-23T09:11:11;1.20;;;1.20;;
13311;SDS011;34033;48.672;9.376;2023-03-23T09:13:37;0.90;;;0.90;;
13311;SDS011;34033;48.672;9.376;2023-03-23T09:16:04;0.80;;;0.80;;
13311;SDS011;34033;48.672;9.376;2023-03-23T09:18:30;1.10;;;0.97;;
13311;SDS011;34033;48.672;9.376;2023-03-23T09:20:57;1.20;;;1.20;;
13311;SDS011;34033;48.672;9.376;2023-03-23T09:23:23;1.17;;;1.10;;
13311;SDS011;34033;48.672;9.376;2023-03-23T09:25:49;3.40;;;1.30;;
13311;SDS011;34033;48.672;9.376;2023-03-23T09:28:16;1.77;;;1.37;;
13311;SDS011;34033;48.672;9.376;2023-03-23T09:30:41;1.10;;;1.10;;
13311;SDS011;34033;48.672;9.376;2023-03-23T09:33:09;1.27;;;1.17;;
13311;SDS011;34033;48.672;9.376;2023-03-23T09:35:35;1.10;;;1.10;;
13311;SDS011;34033;48.672;9.376;2023-03-23T09:38:03;0.83;;;0.83;;
13311;SDS011;34033;48.672;9.376;2023-03-23T09:40:47;1.40;;;1.30;;
13311;SDS011;34033;48.672;9.376;2023-03-23T09:43:20;0.90;;;0.90;;
13311;SDS011;34033;48.672;9.376;2023-03-23T09:56:59;1.13;;;1.13;;
13311;SDS011;34033;48.672;9.376;2023-03-23T10:01:59;1.20;;;1.10;;
13311;SDS011;34033;48.672;9.376;2023-03-23T10:04:50;2.50;;;1.00;;
13311;SDS011;34033;48.672;9.376;2023-03-23T10:07:24;1.30;;;1.20;;
13311;SDS011;34033;48.672;9.376;2023-03-23T10:09:53;0.97;;;0.97;;
13311;SDS011;34033;48.672;9.376;2023-03-23T10:12:34;0.97;;;0.97;;
13311;SDS011;34033;48.672;9.376;2023-03-23T10:25:57;0.83;;;0.83;;
13311;SDS011;34033;48.672;9.376;2023-03-23T10:28:36;0.80;;;0.80;;
13311;SDS011;34033;48.672;9.376;2023-03-23T10:31:08;0.87;;;0.80;;
13311;SDS011;34033;48.672;9.376;2023-03-23T10:33:42;0.90;;;0.90;;
13311;SDS011;34033;48.672;9.376;2023-03-23T10:36:26;0.80;;;0.80;;
13311;SDS011;34033;48.672;9.376;2023-03-23T10:38:58;0.90;;;0.90;;
13311;SDS011;34033;48.672;9.376;2023-03-23T10:41:28;5.40;;;1.10;;
13311;SDS011;34033;48.672;9.376;2023-03-23T10:43:55;0.80;;;0.80;;
13311;SDS011;34033;48.672;9.376;2023-03-23T10:46:36;0.80;;;0.80;;
13311;SDS011;34033;48.672;9.376;2023-03-23T10:49:15;1.03;;;1.03;;
13311;SDS011;34033;48.672;9.376;2023-03-23T10:51:46;0.90;;;0.90;;
13311;SDS011;34033;48.672;9.376;2023-03-23T10:54:25;0.90;;;0.90;;
13311;SDS011;34033;48.672;9.376;2023-03-23T10:56:53;0.80;;;0.80;;
13311;SDS011;34033;48.672;9.376;2023-03-23T10:59:19;1.13;;;1.00;;
13311;SDS011;34033;48.672;9.376;2023-03-23T11:01:48;0.93;;;0.93;;
13311;SDS011;34033;48.672;9.376;2023-03-23T11:04:17;0.80;;;0.80;;
13311;SDS011;34033;48.672;9.376;2023-03-23T11:06:48;0.90;;;0.90;;
13311;SDS011;34033;48.672;9.376;2023-03-23T11:09:21;1.07;;;1.00;;
13311;SDS011;34033;48.672;9.376;2023-03-23T11:11:59;1.20;;;1.20;;
13311;SDS011;34033;48.672;9.376;2023-03-23T11:14:26;2.70;;;1.23;;
13311;SDS011;34033;48.672;9.376;2023-03-23T11:16:54;1.00;;;1.00;;
13311;SDS011;34033;48.672;9.376;2023-03-23T11:19:31;0.90;;;0.90;;
13311;SDS011;34033;48.672;9.376;2023-03-23T11:24:33;0.90;;;0.90;;
13311;SDS011;34033;48.672;9.376;2023-03-23T11:27:06;1.00;;;1.00;;
13311;SDS011;34033;48.672;9.376;2023-03-23T11:29:33;1.10;;;1.10;;
13311;SDS011;34033;48.672;9.376;2023-03-23T11:34:33;1.30;;;1.20;;
13311;SDS011;34033;48.672;9.376;2023-03-23T11:37:07;0.90;;;0.90;;
13311;SDS011;34033;48.672;9.376;2023-03-23T11:40:20;0.93;;;0.93;;
13311;SDS011;34033;48.672;9.376;2023-03-23T11:42:46;0.90;;;0.90;;
13311;SDS011;34033;48.672;9.376;2023-03-23T11:47:54;0.80;;;0.80;;
13311;SDS011;34033;48.672;9.376;2023-03-23T11:50:28;1.20;;;1.10;;
13311;SDS011;34033;48.672;9.376;2023-03-23T11:53:02;1.77;;;1.00;;
13311;SDS011;34033;48.672;9.376;2023-03-23T11:58:16;1.10;;;1.10;;
13311;SDS011;34033;48.672;9.376;2023-03-23T12:00:49;0.97;;;0.97;;
13311;SDS011;34033;48.672;9.376;2023-03-23T12:03:39;0.90;;;0.90;;
13311;SDS011;34033;48.672;9.376;2023-03-23T12:06:27;0.90;;;0.90;;
13311;SDS011;34033;48.672;9.376;2023-03-23T12:22:46;1.50;;;1.10;;
13311;SDS011;34033;48.672;9.376;2023-03-23T12:33:07;1.00;;;1.00;;
13311;SDS011;34033;48.672;9.376;2023-03-23T12:43:47;0.90;;;0.90;;
13311;SDS011;34033;48.672;9.376;2023-03-23T12:48:46;0.80;;;0.80;;
13311;SDS011;34033;48.672;9.376;2023-03-23T12:51:32;1.50;;;1.03;;
13311;SDS011;34033;48.672;9.376;2023-03-23T12:54:15;1.13;;;0.90;;
13311;SDS011;34033;48.672;9.376;2023-03-23T12:57:06;0.90;;;0.90;;
13311;SDS011;34033;48.672;9.376;2023-03-23T12:59:40;1.10;;;1.00;;
13311;SDS011;34033;48.672;9.376;2023-03-23T13:04:35;1.10;;;1.00;;
13311;SDS011;34033;48.672;9.376;2023-03-23T13:07:05;1.77;;;1.27;;
13311;SDS011;34033;48.672;9.376;2023-03-23T13:09:45;1.00;;;1.00;;
13311;SDS011;34033;48.672;9.376;2023-03-23T13:12:13;1.17;;;1.10;;
13311;SDS011;34033;48.672;9.376;2023-03-23T13:23:20;1.00;;;0.83;;
13311;SDS011;34033;48.672;9.376;2023-03-23T13:25:50;0.87;;;0.87;;
13311;SDS011;34033;48.672;9.376;2023-03-23T13:28:18;0.90;;;0.90;;
13311;SDS011;34033;48.672;9.376;2023-03-23T13:30:54;1.20;;;1.10;;
13311;SDS011;34033;48.672;9.376;2023-03-23T13:33:36;1.20;;;1.10;;
13311;SDS011;34033;48.672;9.376;2023-03-23T13:36:09;1.07;;;1.00;;
13311;SDS011;34033;48.672;9.376;2023-03-23T13:38:36;1.17;;;1.10;;
13311;SDS011;34033;48.672;9.376;2023-03-23T13:41:06;0.90;;;0.90;;
13311;SDS011;34033;48.672;9.376;2023-03-23T13:43:35;1.07;;;1.07;;
13311;SDS011;34033;48.672;9.376;2023-03-23T13:46:10;1.43;;;1.10;;
13311;SDS011;34033;48.672;9.376;2023-03-23T13:48:43;0.83;;;0.83;;
13311;SDS011;34033;48.672;9.376;2023-03-23T13:54:06;1.20;;;1.10;;
13311;SDS011;34033;48.672;9.376;2023-03-23T14:01:51;1.20;;;1.10;;
13311;SDS011;34033;48.672;9.376;2023-03-23T14:04:17;1.30;;;1.20;;
13311;SDS011;34033;48.672;9.376;2023-03-23T14:06:45;0.80;;;0.80;;
13311;SDS011;34033;48.672;9.376;2023-03-23T14:09:17;1.43;;;1.10;;
13311;SDS011;34033;48.672;9.376;2023-03-23T14:14:25;1.13;;;1.00;;
13311;SDS011;34033;48.672;9.376;2023-03-23T14:17:05;0.97;;;0.97;;
13311;SDS011;34033;48.672;9.376;2023-03-23T14:19:40;4.60;;;1.20;;
13311;SDS011;34033;48.672;9.376;2023-03-23T14:22:17;1.10;;;1.10;;
13311;SDS011;34033;48.672;9.376;2023-03-23T14:27:34;1.30;;;1.20;;
13311;SDS011;34033;48.672;9.376;2023-03-23T14:30:01;1.27;;;1.20;;
13311;SDS011;34033;48.672;9.376;2023-03-23T14:32:30;0.90;;;0.90;;
13311;SDS011;34033;48.672;9.376;2023-03-23T14:34:57;1.50;;;1.40;;
13311;SDS011;34033;48.672;9.376;2023-03-23T14:37:25;1.40;;;1.30;;
13311;SDS011;34033;48.672;9.376;2023-03-23T14:39:52;1.20;;;1.10;;
13311;SDS011;34033;48.672;9.376;2023-03-23T14:42:21;3.00;;;1.23;;
13311;SDS011;34033;48.672;9.376;2023-03-23T14:44:52;2.40;;;1.17;;
13311;SDS011;34033;48.672;9.376;2023-03-23T14:47:31;1.20;;;1.20;;
13311;SDS011;34033;48.672;9.376;2023-03-23T14:50:00;2.40;;;1.33;;
13311;SDS011;34033;48.672;9.376;2023-03-23T14:52:29;1.30;;;1.20;;
13311;SDS011;34033;48.672;9.376;2023-03-23T14:55:10;1.10;;;1.10;;
13311;SDS011;34033;48.672;9.376;2023-03-23T14:57:39;1.30;;;1.20;;
13311;SDS011;34033;48.672;9.376;2023-03-23T15:03:06;1.47;;;1.30;;
13311;SDS011;34033;48.672;9.376;2023-03-23T15:05:37;1.80;;;1.70;;
13311;SDS011;34033;48.672;9.376;2023-03-23T15:08:11;1.93;;;1.40;;
13311;SDS011;34033;48.672;9.376;2023-03-23T15:10:40;1.60;;;1.50;;
13311;SDS011;34033;48.672;9.376;2023-03-23T15:13:09;1.53;;;1.43;;
13311;SDS011;34033;48.672;9.376;2023-03-23T15:15:37;2.53;;;1.40;;
13311;SDS011;34033;48.672;9.376;2023-03-23T15:18:03;1.70;;;1.30;;
13311;SDS011;34033;48.672;9.376;2023-03-23T15:20:45;3.20;;;1.47;;
13311;SDS011;34033;48.672;9.376;2023-03-23T15:23:16;1.40;;;1.17;;
13311;SDS011;34033;48.672;9.376;2023-03-23T15:25:51;1.10;;;1.10;;
13311;SDS011;34033;48.672;9.376;2023-03-23T15:28:22;1.40;;;1.30;;
13311;SDS011;34033;48.672;9.376;2023-03-23T15:30:54;1.10;;;1.10;;
13311;SDS011;34033;48.672;9.376;2023-03-23T15:33:22;1.30;;;1.30;;
13311;SDS011;34033;48.672;9.376;2023-03-23T15:35:51;1.20;;;1.20;;
13311;SDS011;34033;48.672;9.376;2023-03-23T15:38:21;1.10;;;1.10;;
13311;SDS011;34033;48.672;9.376;2023-03-23T15:40:54;1.20;;;1.20;;
13311;SDS011;34033;48.672;9.376;2023-03-23T15:43:28;1.30;;;1.20;;
13311;SDS011;34033;48.672;9.376;2023-03-23T15:45:57;2.93;;;1.00;;
13311;SDS011;34033;48.672;9.376;2023-03-23T15:48:29;1.20;;;1.10;;
13311;SDS011;34033;48.672;9.376;2023-03-23T15:50:55;1.47;;;1.30;;
13311;SDS011;34033;48.672;9.376;2023-03-23T15:53:31;1.40;;;1.30;;
13311;SDS011;34033;48.672;9.376;2023-03-23T15:56:02;1.47;;;1.37;;
13311;SDS011;34033;48.672;9.376;2023-03-23T15:58:29;1.23;;;1.20;;
13311;SDS011;34033;48.672;9.376;2023-03-23T16:00:55;1.10;;;1.10;;
13311;SDS011;34033;48.672;9.376;2023-03-23T16:03:23;1.20;;;1.20;;
13311;SDS011;34033;48.672;9.376;2023-03-23T16:05:55;1.20;;;1.10;;
13311;SDS011;34033;48.672;9.376;2023-03-23T16:08:23;1.40;;;1.30;;
13311;SDS011;34033;48.672;9.376;2023-03-23T16:10:50;1.57;;;1.47;;
13311;SDS011;34033;48.672;9.376;2023-03-23T16:13:15;1.47;;;1.40;;
13311;SDS011;34033;48.672;9.376;2023-03-23T16:15:41;1.20;;;1.10;;
13311;SDS011;34033;48.672;9.376;2023-03-23T16:18:08;1.00;;;1.00;;
13311;SDS011;34033;48.672;9.376;2023-03-23T16:20:40;1.50;;;1.40;;
13311;SDS011;34033;48.672;9.376;2023-03-23T16:23:05;1.10;;;1.10;;
13311;SDS011;34033;48.672;9.376;2023-03-23T16:25:31;1.10;;;1.10;;
13311;SDS011;34033;48.672;9.376;2023-03-23T16:27:56;1.67;;;1.40;;
13311;SDS011;34033;48.672;9.376;2023-03-23T16:30:23;1.10;;;1.00;;
13311;SDS011;34033;48.672;9.376;2023-03-23T16:32:50;1.10;;;1.10;;
13311;SDS011;34033;48.672;9.376;2023-03-23T16:35:16;1.20;;;1.10;;
13311;SDS011;34033;48.672;9.376;2023-03-23T16:37:52;1.33;;;1.23;;
13311;SDS011;34033;48.672;9.376;2023-03-23T16:40:18;1.40;;;1.20;;
13311;SDS011;34033;48.672;9.376;2023-03-23T16:42:45;1.30;;;1.27;;
13311;SDS011;34033;48.672;9.376;2023-03-23T16:45:11;1.40;;;1.30;;
13311;SDS011;34033;48.672;9.376;2023-03-23T16:47:38;1.23;;;1.13;;
13311;SDS011;34033;48.672;9.376;2023-03-23T16:50:04;1.10;;;1.10;;
13311;SDS011;34033;48.672;9.376;2023-03-23T16:52:32;1.53;;;1.20;;
13311;SDS011;34033;48.672;9.376;2023-03-23T16:54:58;1.10;;;1.10;;
13311;SDS011;34033;48.672;9.376;2023-03-23T16:57:23;2.33;;;1.20;;
13311;SDS011;34033;48.672;9.376;2023-03-23T16:59:49;1.57;;;1.10;;
13311;SDS011;34033;48.672;9.376;2023-03-23T17:02:14;1.30;;;1.20;;
13311;SDS011;34033;48.672;9.376;2023-03-23T17:04:44;1.43;;;1.33;;